Time;durP1;ratioP1;P1;durP2;ratioP2;P2;SDS_P1;SDS_P2;PMS_P1;PMS_P2;Temp;Humidity;BMP_temperature;BMP_pressure;BME280_temperature;BME280_humidity;BME280_pressure;Samples;Min_cycle;Max_cycle;Signal;HPM_P1;HPM_P2
2021/10/25 00:02:08;;;;;;;0.65;0.65;;;8.10;99.90;;;;;;5019087;28;20201;-81
2021/10/25 00:04:35;;;;;;;0.50;0.50;;;8.00;99.90;;;;;;5020021;28;20226;-82
2021/10/25 00:07:02;;;;;;;0.50;0.40;;;8.00;99.90;;;;;;5019797;28;20192;-81
2021/10/25 00:09:30;;;;;;;0.60;0.50;;;8.00;99.90;;;;;;5019706;28;20197;-82
2021/10/25 00:11:58;;;;;;;0.50;0.40;;;8.00;99.90;;;;;;5019975;28;20202;-81
2021/10/25 00:14:25;;;;;;;0.50;0.40;;;7.90;99.90;;;;;;5019130;28;20208;-81
2021/10/25 00:16:52;;;;;;;0.65;0.65;;;7.80;99.90;;;;;;5019511;28;20225;-81
2021/10/25 00:19:20;;;;;;;0.70;0.70;;;7.80;99.90;;;;;;5021845;28;20216;-83
2021/10/25 00:21:47;;;;;;;0.50;0.40;;;7.80;99.90;;;;;;5027056;28;20200;-83
2021/10/25 00:24:14;;;;;;;0.50;0.50;;;7.80;99.90;;;;;;5030593;28;20208;-82
2021/10/25 00:26:41;;;;;;;0.50;0.40;;;7.70;99.90;;;;;;5031814;28;20200;-82
2021/10/25 00:29:09;;;;;;;0.50;0.40;;;7.70;99.90;;;;;;5031519;28;20202;-82
2021/10/25 00:31:36;;;;;;;0.55;0.52;;;7.60;99.90;;;;;;5030027;28;20196;-80
2021/10/25 00:34:03;;;;;;;0.80;0.80;;;7.70;99.90;;;;;;5030058;28;20213;-81
2021/10/25 00:36:30;;;;;;;0.50;0.40;;;7.60;99.90;;;;;;5028707;28;20216;-81
2021/10/25 00:38:57;;;;;;;0.50;0.40;;;7.70;99.90;;;;;;5028887;28;20715;-80
2021/10/25 00:41:24;;;;;;;1.73;1.25;;;7.70;99.90;;;;;;5024670;28;20207;-82
2021/10/25 00:43:51;;;;;;;0.82;0.82;;;7.70;99.90;;;;;;5028230;28;20208;-80
2021/10/25 00:46:19;;;;;;;1.05;1.02;;;7.60;99.90;;;;;;5028742;28;20223;-82
2021/10/25 00:48:45;;;;;;;0.50;0.40;;;7.60;99.90;;;;;;5031913;28;20195;-82
2021/10/25 00:51:12;;;;;;;1.45;1.20;;;7.60;99.90;;;;;;5031575;28;20193;-82
2021/10/25 00:53:40;;;;;;;7.88;1.30;;;7.60;99.90;;;;;;5029673;28;20223;-80
2021/10/25 00:56:07;;;;;;;0.50;0.40;;;7.60;99.90;;;;;;5030178;28;20197;-79
2021/10/25 00:58:35;;;;;;;0.60;0.60;;;7.50;99.90;;;;;;5024671;28;20201;-82
2021/10/25 01:01:02;;;;;;;0.50;0.50;;;7.50;99.90;;;;;;5018122;28;20698;-82
2021/10/25 01:03:30;;;;;;;0.50;0.40;;;7.40;99.90;;;;;;5018058;28;20227;-82
2021/10/25 01:05:57;;;;;;;0.73;0.73;;;7.40;99.90;;;;;;5017910;28;20196;-82
2021/10/25 01:08:25;;;;;;;0.50;0.40;;;7.40;99.90;;;;;;5017639;28;20597;-82
2021/10/25 01:10:53;;;;;;;1.15;1.10;;;7.40;99.90;;;;;;5017142;28;20195;-82
2021/10/25 01:13:20;;;;;;;0.50;0.40;;;7.30;99.90;;;;;;5016629;28;20223;-82
2021/10/25 01:15:47;;;;;;;1.05;0.65;;;7.30;99.90;;;;;;5022241;28;20200;-81
2021/10/25 01:18:14;;;;;;;0.73;0.73;;;7.30;99.90;;;;;;5017389;28;20201;-82
2021/10/25 01:20:42;;;;;;;0.50;0.40;;;7.30;99.90;;;;;;5016432;28;20228;-82
2021/10/25 01:23:09;;;;;;;0.50;0.40;;;7.30;99.90;;;;;;5017480;28;20213;-82
2021/10/25 01:25:36;;;;;;;0.80;0.73;;;7.30;99.90;;;;;;5017644;28;20200;-82
2021/10/25 01:28:03;;;;;;;0.50;0.40;;;7.20;99.90;;;;;;5017418;28;20204;-80
2021/10/25 01:30:30;;;;;;;0.50;0.40;;;7.30;99.90;;;;;;5016451;28;20204;-82
2021/10/25 01:32:57;;;;;;;0.50;0.40;;;7.30;99.90;;;;;;5017473;28;20223;-78
2021/10/25 01:35:24;;;;;;;0.50;0.40;;;7.30;99.90;;;;;;5016913;28;20671;-80
2021/10/25 01:37:52;;;;;;;0.50;0.40;;;7.30;99.90;;;;;;5017158;28;20200;-82
2021/10/25 01:40:19;;;;;;;0.50;0.40;;;7.30;99.90;;;;;;5016663;28;20213;-82
2021/10/25 01:42:46;;;;;;;0.50;0.50;;;7.30;99.90;;;;;;4979600;28;1074419;-81
2021/10/25 01:45:13;;;;;;;0.50;0.40;;;7.40;99.90;;;;;;5017564;28;20196;-82
2021/10/25 01:47:40;;;;;;;0.60;0.50;;;7.30;99.90;;;;;;5017940;28;20203;-82
2021/10/25 01:50:08;;;;;;;0.50;0.40;;;7.30;99.90;;;;;;5017760;28;20616;-80
2021/10/25 01:52:36;;;;;;;3.72;1.15;;;7.30;99.90;;;;;;5028152;28;20784;-80
2021/10/25 01:55:05;;;;;;;0.50;0.40;;;7.20;99.90;;;;;;5024864;28;20683;-81
2021/10/25 01:57:32;;;;;;;0.85;0.85;;;7.20;99.90;;;;;;5027091;28;20209;-80
2021/10/25 01:59:59;;;;;;;1.88;1.77;;;7.20;99.90;;;;;;5027709;28;20328;-81
2021/10/25 02:02:26;;;;;;;0.50;0.40;;;7.20;99.90;;;;;;5027012;28;20224;-82
2021/10/25 02:04:53;;;;;;;0.50;0.40;;;7.30;99.90;;;;;;5025740;28;20208;-81
2021/10/25 02:07:20;;;;;;;0.50;0.40;;;7.30;99.90;;;;;;5030980;28;20197;-82
2021/10/25 02:09:47;;;;;;;0.50;0.40;;;7.30;99.90;;;;;;5030596;28;20192;-82
2021/10/25 02:12:15;;;;;;;0.50;0.50;;;7.30;99.90;;;;;;5027655;28;20200;-80
2021/10/25 02:14:42;;;;;;;0.50;0.40;;;7.30;99.90;;;;;;5028348;28;20207;-81
2021/10/25 02:17:09;;;;;;;0.50;0.40;;;7.20;99.90;;;;;;5026211;28;20208;-81
2021/10/25 02:19:35;;;;;;;0.60;0.60;;;7.20;99.90;;;;;;5024330;28;20220;-82
2021/10/25 02:22:02;;;;;;;1.90;1.80;;;7.20;99.90;;;;;;5019988;28;20196;-81
2021/10/25 02:24:29;;;;;;;0.50;0.40;;;7.20;99.90;;;;;;5018525;28;20204;-80
2021/10/25 02:26:56;;;;;;;0.60;0.60;;;7.30;99.90;;;;;;5016893;28;20216;-81
2021/10/25 02:29:24;;;;;;;0.50;0.43;;;7.20;99.90;;;;;;5016511;28;20199;-81
2021/10/25 02:31:51;;;;;;;0.50;0.40;;;7.20;99.90;;;;;;5016797;28;20204;-81
2021/10/25 02:34:18;;;;;;;0.50;0.40;;;7.20;99.90;;;;;;5016461;28;20239;-81
2021/10/25 02:36:46;;;;;;;5.28;2.38;;;7.20;99.90;;;;;;5016246;28;20196;-81
2021/10/25 02:39:13;;;;;;;1.13;1.02;;;7.20;99.90;;;;;;5016590;28;20192;-82
2021/10/25 02:41:40;;;;;;;0.50;0.40;;;7.20;99.90;;;;;;5015843;28;20221;-81
2021/10/25 02:46:39;;;;;;;0.50;0.40;;;7.20;99.90;;;;;;5035832;23;20310;-76
2021/10/25 02:49:06;;;;;;;0.63;0.63;;;7.20;99.90;;;;;;5031465;28;20201;-76
2021/10/25 02:51:33;;;;;;;0.50;0.40;;;7.30;99.90;;;;;;5032005;28;20188;-77
2021/10/25 02:54:00;;;;;;;0.50;0.45;;;7.30;99.90;;;;;;5032467;28;20224;-75
2021/10/25 02:56:27;;;;;;;0.50;0.40;;;7.40;99.90;;;;;;5032256;28;20221;-77
2021/10/25 02:58:55;;;;;;;0.50;0.40;;;7.30;99.90;;;;;;5031136;28;20208;-76
2021/10/25 03:01:22;;;;;;;5.38;1.08;;;7.30;99.90;;;;;;5031765;28;20207;-77
2021/10/25 03:03:50;;;;;;;0.50;0.40;;;7.40;99.90;;;;;;5032161;28;20276;-77
2021/10/25 03:06:17;;;;;;;0.65;0.65;;;7.40;99.90;;;;;;5031869;28;20717;-72
2021/10/25 03:08:43;;;;;;;0.50;0.40;;;7.40;99.90;;;;;;5031500;28;20208;-77
2021/10/25 03:11:10;;;;;;;0.50;0.50;;;7.40;99.90;;;;;;5031178;28;20572;-76
2021/10/25 03:13:37;;;;;;;0.93;0.93;;;7.50;99.90;;;;;;5031537;28;20696;-76
2021/10/25 03:16:05;;;;;;;0.63;0.60;;;7.40;99.90;;;;;;5031714;28;20223;-77
2021/10/25 03:18:32;;;;;;;0.95;0.55;;;7.50;99.90;;;;;;5031798;28;20253;-78
2021/10/25 03:21:00;;;;;;;0.50;0.40;;;7.40;99.90;;;;;;5031696;28;20307;-76
2021/10/25 03:23:27;;;;;;;0.82;0.82;;;7.40;99.90;;;;;;5031310;28;20202;-73
2021/10/25 03:25:54;;;;;;;0.50;0.40;;;7.40;99.90;;;;;;5032000;28;20224;-77
2021/10/25 03:28:21;;;;;;;0.50;0.40;;;7.40;99.90;;;;;;5031891;28;20196;-73
2021/10/25 03:30:48;;;;;;;0.50;0.40;;;7.40;99.90;;;;;;5031376;28;20203;-77
2021/10/25 03:33:15;;;;;;;0.50;0.40;;;7.40;99.90;;;;;;5031431;28;20195;-77
2021/10/25 03:35:42;;;;;;;0.70;0.70;;;7.30;99.90;;;;;;5031313;28;20298;-76
2021/10/25 03:38:12;;;;;;;0.50;0.40;;;7.30;99.90;;;;;;5031605;28;20205;-77
2021/10/25 03:40:40;;;;;;;0.50;0.40;;;7.40;99.90;;;;;;5031156;28;20242;-77
2021/10/25 03:43:07;;;;;;;1.13;1.13;;;7.30;99.90;;;;;;5031222;28;20196;-76
2021/10/25 03:45:37;;;;;;;0.50;0.40;;;7.30;99.90;;;;;;5031044;28;20240;-77
2021/10/25 03:48:09;;;;;;;0.50;0.50;;;7.30;99.90;;;;;;5031483;28;20248;-77
2021/10/25 03:50:38;;;;;;;1.50;1.23;;;7.30;99.90;;;;;;5031166;28;20219;-77
2021/10/25 03:53:09;;;;;;;0.85;0.80;;;7.40;99.90;;;;;;5031134;28;20211;-77
2021/10/25 03:55:42;;;;;;;0.50;0.40;;;7.50;99.90;;;;;;5031154;28;20283;-76
2021/10/25 04:01:09;;;;;;;0.50;0.40;;;7.50;99.90;;;;;;5000506;28;20216;-76
2021/10/25 04:26:01;;;;;;;2.78;0.77;;;7.40;99.90;;;;;;4991493;28;20264;-77
2021/10/25 04:28:32;;;;;;;0.70;0.70;;;7.40;99.90;;;;;;4992022;28;20232;-77
2021/10/25 04:31:00;;;;;;;0.50;0.50;;;7.40;99.90;;;;;;4991578;28;20203;-79
2021/10/25 04:33:27;;;;;;;0.50;0.40;;;7.40;99.90;;;;;;4991636;28;20264;-79
2021/10/25 04:35:54;;;;;;;0.50;0.40;;;7.50;99.90;;;;;;4991591;28;20218;-77
2021/10/25 04:38:21;;;;;;;0.50;0.40;;;7.50;99.90;;;;;;4991884;28;20221;-77
2021/10/25 04:40:48;;;;;;;0.80;0.80;;;7.50;99.90;;;;;;4991145;28;20221;-76
2021/10/25 04:43:16;;;;;;;3.25;1.05;;;7.60;99.90;;;;;;4993262;28;20201;-77
2021/10/25 04:45:46;;;;;;;0.50;0.50;;;7.60;99.90;;;;;;4995220;28;20225;-77
2021/10/25 04:48:12;;;;;;;1.35;0.75;;;7.60;99.90;;;;;;4994903;28;20667;-77
2021/10/25 04:50:39;;;;;;;0.50;0.40;;;7.60;99.90;;;;;;4994521;28;20200;-77
2021/10/25 04:53:06;;;;;;;1.30;0.63;;;7.60;99.90;;;;;;4995340;28;20570;-78
2021/10/25 04:55:33;;;;;;;1.00;0.90;;;7.60;99.90;;;;;;4994953;28;20221;-78
2021/10/25 04:57:59;;;;;;;0.95;0.50;;;7.60;99.90;;;;;;4995005;28;20201;-78
2021/10/25 05:00:26;;;;;;;0.50;0.45;;;7.60;99.90;;;;;;4994658;28;20213;-76
2021/10/25 05:02:55;;;;;;;0.50;0.50;;;7.70;99.90;;;;;;4994757;28;20197;-78
2021/10/25 05:05:21;;;;;;;0.50;0.40;;;7.70;99.90;;;;;;4994988;28;20221;-77
2021/10/25 05:07:48;;;;;;;0.50;0.50;;;7.70;99.90;;;;;;4994422;28;20212;-77
2021/10/25 05:10:15;;;;;;;0.50;0.40;;;7.70;99.90;;;;;;4994477;28;20198;-80
2021/10/25 05:12:42;;;;;;;0.50;0.40;;;7.70;99.90;;;;;;4994260;28;20198;-77
2021/10/25 05:15:09;;;;;;;0.50;0.40;;;7.60;99.90;;;;;;4994549;28;20217;-77
2021/10/25 05:17:36;;;;;;;0.50;0.40;;;7.70;99.90;;;;;;4994557;28;20230;-77
2021/10/25 05:20:06;;;;;;;3.22;1.77;;;7.70;99.90;;;;;;4994314;28;20207;-77
2021/10/25 05:22:33;;;;;;;0.93;0.85;;;7.70;99.90;;;;;;4994355;28;20204;-76
2021/10/25 05:25:00;;;;;;;2.65;2.10;;;7.70;99.90;;;;;;4994492;28;20213;-77
2021/10/25 05:27:26;;;;;;;1.50;1.40;;;7.70;99.90;;;;;;4994326;28;20255;-78
2021/10/25 05:29:53;;;;;;;0.50;0.40;;;7.70;99.90;;;;;;4993828;28;20193;-78
2021/10/25 05:32:20;;;;;;;0.50;0.40;;;7.70;99.90;;;;;;4993522;28;20204;-77
2021/10/25 05:34:47;;;;;;;0.50;0.40;;;7.70;99.90;;;;;;4993987;28;20220;-79
2021/10/25 05:37:15;;;;;;;0.50;0.40;;;7.70;99.90;;;;;;4993877;28;20209;-77
2021/10/25 05:39:41;;;;;;;1.63;1.52;;;7.60;99.90;;;;;;4994314;28;20193;-78
2021/10/25 05:42:09;;;;;;;0.50;0.40;;;7.60;99.90;;;;;;4993505;28;20253;-77
2021/10/25 05:44:37;;;;;;;1.08;0.90;;;7.50;99.90;;;;;;4993640;28;20249;-77
2021/10/25 05:47:04;;;;;;;0.63;0.55;;;7.50;99.90;;;;;;4994033;28;20207;-78
2021/10/25 05:49:31;;;;;;;0.50;0.40;;;7.50;99.90;;;;;;4994072;28;20208;-76
2021/10/25 05:51:58;;;;;;;0.50;0.40;;;7.60;99.90;;;;;;4993518;28;20199;-78
2021/10/25 05:54:27;;;;;;;0.50;0.40;;;7.50;99.90;;;;;;4992431;28;20230;-77
2021/10/25 05:56:54;;;;;;;0.50;0.50;;;7.50;99.90;;;;;;4993277;28;20224;-76
2021/10/25 05:59:25;;;;;;;0.50;0.40;;;7.40;99.90;;;;;;4993873;28;20727;-76
2021/10/25 06:02:01;;;;;;;0.88;0.88;;;7.40;99.90;;;;;;4993600;28;20221;-77
2021/10/25 06:04:28;;;;;;;0.60;0.60;;;7.40;99.90;;;;;;4993591;28;20193;-77
2021/10/25 06:06:55;;;;;;;1.77;0.93;;;7.40;99.90;;;;;;4993212;28;20292;-77
2021/10/25 06:09:22;;;;;;;0.90;0.90;;;7.30;99.90;;;;;;4993465;28;20212;-77
2021/10/25 06:11:50;;;;;;;1.25;1.25;;;7.30;99.90;;;;;;4993331;28;20267;-76
2021/10/25 06:14:26;;;;;;;0.50;0.47;;;7.30;99.90;;;;;;4993656;28;20208;-75
2021/10/25 06:16:57;;;;;;;1.45;1.35;;;7.30;99.90;;;;;;4993753;28;20192;-76
2021/10/25 06:19:24;;;;;;;0.55;0.55;;;7.30;99.90;;;;;;4993462;28;20278;-75
2021/10/25 06:21:51;;;;;;;0.50;0.40;;;7.30;99.90;;;;;;4993261;28;20220;-77
2021/10/25 06:24:18;;;;;;;0.50;0.50;;;7.30;99.90;;;;;;4993297;28;20198;-79
2021/10/25 06:26:45;;;;;;;0.50;0.43;;;7.30;99.90;;;;;;4993213;28;20198;-77
2021/10/25 06:29:13;;;;;;;0.50;0.50;;;7.30;99.90;;;;;;4999439;28;20193;-77
2021/10/25 06:31:41;;;;;;;0.80;0.70;;;7.40;99.90;;;;;;5008689;28;20197;-77
2021/10/25 06:34:19;;;;;;;0.73;0.73;;;7.40;99.90;;;;;;5012685;28;20197;-77
2021/10/25 06:36:48;;;;;;;0.50;0.40;;;7.40;99.90;;;;;;5012459;28;20187;-77
2021/10/25 06:39:21;;;;;;;0.50;0.50;;;7.40;99.90;;;;;;5012519;28;20204;-76
2021/10/25 06:41:48;;;;;;;0.50;0.40;;;7.50;99.90;;;;;;5012233;28;20224;-77
2021/10/25 06:44:16;;;;;;;0.50;0.50;;;7.60;99.90;;;;;;5012957;28;20254;-77
2021/10/25 06:46:44;;;;;;;0.88;0.88;;;7.60;99.90;;;;;;5012336;28;20219;-78
2021/10/25 06:49:11;;;;;;;0.60;0.60;;;7.60;99.90;;;;;;5012203;28;20198;-78
2021/10/25 06:51:38;;;;;;;0.50;0.50;;;7.60;99.90;;;;;;5012045;28;20561;-76
2021/10/25 06:54:05;;;;;;;0.73;0.73;;;7.60;99.90;;;;;;5012628;28;20197;-77
2021/10/25 06:56:33;;;;;;;0.60;0.60;;;7.70;99.90;;;;;;5012137;28;20267;-76
2021/10/25 06:58:59;;;;;;;0.60;0.60;;;7.70;99.90;;;;;;5011853;28;20200;-76
2021/10/25 07:01:28;;;;;;;1.13;0.65;;;7.70;99.90;;;;;;5011641;28;20220;-75
2021/10/25 07:03:54;;;;;;;0.50;0.40;;;7.80;99.90;;;;;;5006813;28;20200;-76
2021/10/25 07:06:21;;;;;;;0.50;0.40;;;7.80;99.90;;;;;;5011819;28;20221;-76
2021/10/25 07:08:49;;;;;;;0.63;0.60;;;7.80;99.90;;;;;;5011602;28;20208;-77
2021/10/25 07:11:17;;;;;;;0.50;0.40;;;8.30;99.90;;;;;;5010901;28;20224;-76
2021/10/25 07:13:47;;;;;;;0.80;0.80;;;9.00;99.90;;;;;;5011271;28;20235;-77
2021/10/25 07:16:18;;;;;;;0.63;0.63;;;9.30;99.90;;;;;;5011906;28;20217;-77
2021/10/25 07:18:57;;;;;;;1.50;1.40;;;9.50;99.90;;;;;;5004632;28;20587;-76
2021/10/25 07:21:39;;;;;;;1.60;0.50;;;9.80;99.90;;;;;;4996214;28;20676;-75
2021/10/25 07:27:17;;;;;;;0.60;0.50;;;9.60;99.90;;;;;;5011139;28;20185;-76
2021/10/25 08:00:35;;;;;;;0.50;0.40;;;18.10;98.00;;;;;;5011017;28;20448;-74
2021/10/25 08:03:31;;;;;;;1.07;0.60;;;18.50;94.30;;;;;;5011486;28;20559;-78
2021/10/25 08:06:05;;;;;;;0.50;0.30;;;18.90;91.10;;;;;;5011642;28;20519;-77
2021/10/25 08:11:21;;;;;;;0.50;0.40;;;19.80;85.70;;;;;;5007243;28;20425;-77
2021/10/25 08:13:49;;;;;;;0.50;0.40;;;19.80;82.80;;;;;;5011339;28;20450;-77
2021/10/25 08:16:24;;;;;;;1.37;1.27;;;19.50;83.10;;;;;;5011320;28;20463;-77
2021/10/25 08:21:35;;;;;;;3.13;0.60;;;20.70;78.90;;;;;;5013658;28;20832;-77
2021/10/25 08:24:04;;;;;;;0.50;0.30;;;21.00;77.20;;;;;;5014922;28;20812;-78
2021/10/25 08:26:30;;;;;;;0.60;0.50;;;21.20;76.10;;;;;;5014745;28;20546;-78
2021/10/25 08:28:57;;;;;;;0.80;0.73;;;21.60;74.20;;;;;;5014922;28;20801;-77
2021/10/25 08:31:24;;;;;;;0.60;0.40;;;21.60;72.50;;;;;;5014869;28;20434;-78
2021/10/25 08:39:52;;;;;;;0.50;0.47;;;22.20;69.80;;;;;;4992213;28;20450;-77
2021/10/25 08:42:20;;;;;;;0.60;0.50;;;22.10;69.20;;;;;;5014259;28;20482;-77
2021/10/25 08:44:49;;;;;;;0.77;0.77;;;23.20;67.90;;;;;;5014428;28;20478;-77
2021/10/25 08:47:20;;;;;;;0.50;0.40;;;23.00;65.40;;;;;;5026462;23;20486;-84
2021/10/25 08:49:47;;;;;;;0.50;0.40;;;22.20;67.00;;;;;;5012177;28;20427;-85
2021/10/25 08:52:14;;;;;;;0.50;0.30;;;21.40;68.10;;;;;;5021180;28;20514;-84
2021/10/25 08:54:42;;;;;;;1.33;0.50;;;20.70;70.90;;;;;;5020955;28;20441;-83
2021/10/25 08:57:09;;;;;;;1.17;0.87;;;20.10;72.40;;;;;;5021268;28;20461;-83
2021/10/25 08:59:35;;;;;;;0.60;0.50;;;20.60;73.30;;;;;;5020739;28;20450;-84
2021/10/25 09:02:06;;;;;;;0.60;0.60;;;20.70;72.80;;;;;;5021067;28;20486;-84
2021/10/25 09:04:33;;;;;;;0.50;0.40;;;21.30;72.10;;;;;;5022106;28;20453;-83
2021/10/25 09:07:00;;;;;;;0.50;0.40;;;21.70;71.00;;;;;;5021246;28;20470;-83
2021/10/25 09:09:28;;;;;;;0.50;0.40;;;21.40;69.80;;;;;;5020961;28;20971;-83
2021/10/25 09:12:03;;;;;;;0.70;0.70;;;19.60;72.60;;;;;;5020681;28;20434;-83
2021/10/25 09:14:31;;;;;;;0.60;0.60;;;18.50;75.50;;;;;;5020981;28;20437;-84
2021/10/25 09:17:00;;;;;;;0.50;0.33;;;17.80;79.30;;;;;;5020904;28;20490;-84
2021/10/25 09:19:31;;;;;;;1.70;1.60;;;17.20;84.50;;;;;;5020624;28;20453;-86
2021/10/25 09:22:07;;;;;;;0.70;0.40;;;16.60;90.30;;;;;;5019814;28;20568;-84
2021/10/25 09:24:34;;;;;;;0.50;0.30;;;15.70;99.90;;;;;;5021560;28;20480;-85
2021/10/25 09:27:06;;;;;;;0.50;0.40;;;15.30;99.90;;;;;;5022080;28;20467;-82
2021/10/25 09:29:37;;;;;;;1.33;0.70;;;14.90;99.90;;;;;;5022805;28;20466;-85
2021/10/25 09:32:09;;;;;;;0.50;0.40;;;14.40;99.90;;;;;;5022243;28;20554;-82
2021/10/25 09:34:43;;;;;;;0.57;0.57;;;14.30;99.90;;;;;;5022611;28;20470;-83
2021/10/25 09:37:14;;;;;;;0.50;0.40;;;13.80;99.90;;;;;;5021172;28;20513;-85
2021/10/25 09:39:47;;;;;;;0.50;0.40;;;13.70;99.90;;;;;;5020871;28;20490;-79
2021/10/25 09:45:40;;;;;;;0.50;0.40;;;13.70;99.90;;;;;;5011528;28;20423;-83
2021/10/25 09:50:58;;;;;;;0.50;0.40;;;13.80;99.90;;;;;;5020165;28;20527;-82
2021/10/25 09:53:30;;;;;;;0.50;0.40;;;13.90;99.90;;;;;;5019187;28;20454;-83
2021/10/25 09:55:58;;;;;;;0.50;0.40;;;13.80;99.90;;;;;;5019230;28;20439;-85
2021/10/25 09:58:33;;;;;;;0.60;0.50;;;13.90;99.90;;;;;;5020650;28;20443;-83
2021/10/25 10:01:00;;;;;;;2.50;2.20;;;14.00;99.90;;;;;;5018804;28;20816;-83
2021/10/25 10:03:27;;;;;;;0.50;0.37;;;13.90;99.90;;;;;;5019431;28;20478;-83
2021/10/25 10:05:59;;;;;;;0.50;0.40;;;14.00;99.90;;;;;;5019090;28;20440;-83
2021/10/25 10:08:27;;;;;;;0.50;0.37;;;14.10;99.90;;;;;;5019941;28;20462;-83
2021/10/25 10:10:56;;;;;;;0.50;0.40;;;14.20;99.90;;;;;;5019019;28;20447;-82
2021/10/25 10:13:26;;;;;;;0.60;0.40;;;14.30;99.90;;;;;;5019185;28;20435;-83
2021/10/25 10:15:58;;;;;;;0.77;0.67;;;14.30;99.90;;;;;;5017755;28;20470;-81
2021/10/25 10:18:28;;;;;;;0.50;0.50;;;14.20;99.90;;;;;;5018060;28;20428;-82
2021/10/25 10:21:00;;;;;;;0.50;0.40;;;13.90;99.90;;;;;;5016746;28;20451;-84
2021/10/25 10:23:27;;;;;;;0.50;0.40;;;14.10;99.90;;;;;;5018424;28;21024;-81
2021/10/25 10:25:55;;;;;;;0.50;0.40;;;14.20;99.90;;;;;;5018227;28;20949;-81
2021/10/25 10:28:34;;;;;;;0.77;0.77;;;14.00;99.90;;;;;;5017503;28;20447;-81
2021/10/25 10:31:04;;;;;;;0.50;0.40;;;14.00;99.90;;;;;;5018375;28;20444;-81
2021/10/25 10:33:34;;;;;;;0.60;0.50;;;13.90;99.90;;;;;;5017488;28;20827;-83
2021/10/25 10:36:15;;;;;;;0.50;0.40;;;14.00;99.90;;;;;;5017168;28;20470;-81
2021/10/25 10:38:49;;;;;;;0.50;0.40;;;14.20;99.90;;;;;;5017344;28;20518;-81
2021/10/25 10:41:17;;;;;;;0.83;0.77;;;14.30;99.90;;;;;;5017335;28;20443;-84
2021/10/25 10:43:58;;;;;;;0.50;0.50;;;14.50;99.90;;;;;;5019070;28;20489;-85
2021/10/25 10:46:26;;;;;;;0.50;0.30;;;14.60;99.90;;;;;;5020167;28;20565;-83
2021/10/25 10:48:59;;;;;;;2.33;1.83;;;14.40;99.90;;;;;;5021066;28;20451;-82
2021/10/25 10:51:32;;;;;;;0.50;0.40;;;14.40;99.90;;;;;;5021368;28;20454;-84
2021/10/25 10:54:10;;;;;;;1.27;1.03;;;14.50;99.90;;;;;;5025173;28;20424;-86
2021/10/25 10:56:41;;;;;;;0.80;0.73;;;14.60;99.90;;;;;;5019099;28;20472;-81
2021/10/25 10:59:29;;;;;;;3.33;1.03;;;14.70;99.90;;;;;;5018061;28;20466;-83
2021/10/25 11:01:58;;;;;;;0.50;0.37;;;14.70;99.90;;;;;;5018666;28;20493;-84
2021/10/25 11:04:30;;;;;;;0.50;0.40;;;14.80;99.90;;;;;;5018943;28;20446;-84
2021/10/25 11:06:59;;;;;;;0.50;0.40;;;14.70;99.90;;;;;;5017435;28;20481;-82
2021/10/25 11:09:31;;;;;;;0.50;0.30;;;14.90;99.90;;;;;;5018536;28;20440;-84
2021/10/25 11:12:05;;;;;;;0.60;0.50;;;15.00;99.90;;;;;;5018309;28;20451;-84
2021/10/25 11:14:35;;;;;;;0.60;0.50;;;15.10;99.90;;;;;;5018155;28;20827;-81
2021/10/25 11:17:15;;;;;;;0.50;0.50;;;15.30;99.90;;;;;;5018000;28;20470;-81
2021/10/25 11:19:51;;;;;;;2.10;0.80;;;15.60;99.90;;;;;;5018308;28;20487;-79
2021/10/25 11:22:30;;;;;;;0.50;0.30;;;15.60;99.90;;;;;;5017857;28;20464;-83
2021/10/25 11:24:57;;;;;;;3.07;1.63;;;15.90;99.90;;;;;;5018511;28;20474;-84
2021/10/25 11:27:31;;;;;;;2.30;2.20;;;15.90;99.90;;;;;;5018246;28;20468;-83
2021/10/25 11:30:06;;;;;;;0.70;0.50;;;16.20;99.90;;;;;;5019942;28;20438;-82
2021/10/25 11:32:35;;;;;;;0.50;0.40;;;16.10;99.90;;;;;;5019289;28;20844;-83
2021/10/25 11:35:05;;;;;;;1.10;1.00;;;16.20;99.90;;;;;;5018427;28;20445;-86
2021/10/25 11:37:32;;;;;;;0.60;0.40;;;16.10;99.90;;;;;;5018342;28;20457;-84
2021/10/25 11:40:04;;;;;;;0.50;0.33;;;15.80;99.90;;;;;;5017420;28;20446;-82
2021/10/25 11:42:33;;;;;;;0.50;0.37;;;15.60;99.90;;;;;;5015985;28;20504;-83
2021/10/25 11:45:01;;;;;;;0.50;0.40;;;15.70;99.90;;;;;;5016928;28;20445;-83
2021/10/25 11:47:30;;;;;;;0.50;0.40;;;15.70;99.90;;;;;;5016526;28;20466;-83
2021/10/25 11:50:01;;;;;;;0.50;0.40;;;15.90;99.90;;;;;;5016570;28;20445;-81
2021/10/25 11:52:35;;;;;;;1.37;1.27;;;16.00;99.90;;;;;;5015939;28;20425;-84
2021/10/25 11:55:01;;;;;;;1.57;1.00;;;16.00;99.90;;;;;;5017353;28;20434;-82
2021/10/25 11:57:28;;;;;;;0.50;0.47;;;15.80;99.90;;;;;;5016693;28;20483;-82
2021/10/25 11:59:59;;;;;;;0.50;0.40;;;15.70;99.90;;;;;;5016458;28;20443;-84
2021/10/25 12:02:27;;;;;;;0.50;0.40;;;16.10;99.90;;;;;;5015189;28;20977;-83
2021/10/25 12:04:54;;;;;;;0.67;0.67;;;16.30;99.90;;;;;;5015919;28;20444;-83
2021/10/25 12:07:23;;;;;;;0.70;0.60;;;16.30;99.90;;;;;;5018628;28;20464;-82
2021/10/25 12:09:56;;;;;;;2.47;0.80;;;16.40;99.90;;;;;;5019491;28;20542;-83
2021/10/25 12:12:23;;;;;;;0.50;0.40;;;16.20;99.90;;;;;;5018407;28;20445;-82
2021/10/25 12:14:56;;;;;;;1.43;1.33;;;15.70;99.90;;;;;;5017665;28;20846;-80
2021/10/25 12:17:28;;;;;;;0.50;0.40;;;15.70;99.90;;;;;;5017676;28;20477;-82
2021/10/25 12:19:55;;;;;;;1.10;1.00;;;15.80;99.90;;;;;;5016477;28;20443;-81
2021/10/25 12:22:23;;;;;;;0.50;0.40;;;15.70;99.90;;;;;;5018387;28;20502;-81
2021/10/25 12:24:52;;;;;;;4.70;1.57;;;15.60;99.90;;;;;;5017702;28;20443;-82
2021/10/25 12:27:22;;;;;;;0.50;0.30;;;15.50;99.90;;;;;;5017326;28;20459;-84
2021/10/25 12:29:59;;;;;;;0.50;0.50;;;15.60;99.90;;;;;;5019994;28;20439;-83
2021/10/25 12:32:25;;;;;;;0.90;0.90;;;15.60;99.90;;;;;;5018476;28;20416;-84
2021/10/25 12:34:54;;;;;;;0.63;0.40;;;15.50;99.90;;;;;;5019132;28;20497;-83
2021/10/25 12:37:25;;;;;;;0.60;0.50;;;15.80;99.90;;;;;;5020379;28;20451;-84
2021/10/25 12:39:52;;;;;;;1.33;0.60;;;15.80;99.90;;;;;;5019881;28;20445;-83
2021/10/25 12:42:19;;;;;;;0.50;0.40;;;15.70;99.90;;;;;;5019785;28;20427;-83
2021/10/25 12:44:51;;;;;;;2.03;1.13;;;15.70;99.90;;;;;;5018812;28;20450;-83
2021/10/25 12:47:20;;;;;;;0.60;0.53;;;15.70;99.90;;;;;;5017922;28;20471;-85
2021/10/25 12:49:49;;;;;;;0.50;0.40;;;15.70;99.90;;;;;;5018807;28;20444;-84
2021/10/25 12:52:17;;;;;;;1.13;0.60;;;15.80;99.90;;;;;;5016717;28;20960;-84
2021/10/25 12:54:45;;;;;;;0.63;0.63;;;15.80;99.90;;;;;;5017518;28;20447;-82
2021/10/25 12:57:17;;;;;;;0.50;0.30;;;15.80;99.90;;;;;;5017729;28;20459;-83
2021/10/25 12:59:44;;;;;;;0.50;0.33;;;15.90;99.90;;;;;;5017471;28;20451;-82
2021/10/25 13:02:23;;;;;;;2.50;0.60;;;16.00;99.90;;;;;;5016328;28;20447;-84
2021/10/25 13:04:49;;;;;;;2.03;0.70;;;16.10;99.90;;;;;;5020120;28;20415;-82
2021/10/25 13:07:20;;;;;;;0.60;0.50;;;15.80;99.90;;;;;;5020359;28;20455;-83
2021/10/25 13:09:49;;;;;;;1.13;0.57;;;15.80;99.90;;;;;;5021642;28;20808;-83
2021/10/25 13:12:16;;;;;;;0.50;0.40;;;15.70;99.90;;;;;;5020831;28;20448;-83
2021/10/25 13:14:43;;;;;;;0.60;0.60;;;15.50;99.90;;;;;;5020840;28;20447;-81
2021/10/25 13:17:11;;;;;;;2.80;1.23;;;15.30;99.90;;;;;;5021798;28;20466;-84
2021/10/25 13:19:38;;;;;;;0.50;0.40;;;15.20;99.90;;;;;;5020693;28;20657;-83
2021/10/25 13:22:06;;;;;;;0.50;0.33;;;15.20;99.90;;;;;;5020069;28;20474;-85
2021/10/25 13:24:32;;;;;;;0.60;0.40;;;15.10;99.90;;;;;;5021628;28;20518;-84
2021/10/25 13:27:00;;;;;;;0.50;0.40;;;15.20;99.90;;;;;;5020961;28;20466;-83
2021/10/25 13:29:27;;;;;;;0.50;0.40;;;15.10;99.90;;;;;;5020500;28;20447;-84
2021/10/25 13:31:54;;;;;;;0.50;0.30;;;15.10;99.90;;;;;;5019623;28;20454;-83
2021/10/25 13:34:21;;;;;;;0.50;0.50;;;15.00;99.90;;;;;;5021010;28;20447;-84
2021/10/25 13:36:48;;;;;;;0.60;0.60;;;14.80;99.90;;;;;;5019677;28;20476;-85
2021/10/25 13:39:17;;;;;;;2.00;1.17;;;14.80;99.90;;;;;;5020475;28;20443;-84
2021/10/25 13:41:44;;;;;;;0.50;0.40;;;14.70;99.90;;;;;;5019884;28;20448;-84
2021/10/25 13:44:12;;;;;;;0.50;0.30;;;14.50;99.90;;;;;;5020626;28;20479;-84
2021/10/25 13:46:39;;;;;;;0.50;0.30;;;14.40;99.90;;;;;;5019653;28;21033;-79
2021/10/25 13:49:07;;;;;;;0.50;0.40;;;14.30;99.90;;;;;;5020402;28;20455;-85
2021/10/25 13:51:34;;;;;;;0.60;0.50;;;14.40;99.90;;;;;;5019429;28;20949;-84
2021/10/25 13:54:01;;;;;;;0.50;0.40;;;14.50;99.90;;;;;;5020092;28;20443;-85
2021/10/25 13:56:28;;;;;;;0.80;0.60;;;14.50;99.90;;;;;;5019901;28;20462;-83
2021/10/25 13:58:56;;;;;;;0.77;0.60;;;14.40;99.90;;;;;;5020363;28;20439;-83
2021/10/25 14:01:24;;;;;;;0.60;0.50;;;14.30;99.90;;;;;;5019769;28;20529;-84
2021/10/25 14:03:52;;;;;;;0.50;0.40;;;14.30;99.90;;;;;;5019586;28;20535;-83
2021/10/25 14:06:21;;;;;;;0.50;0.40;;;14.20;99.90;;;;;;5019484;28;20467;-85
2021/10/25 14:08:50;;;;;;;0.60;0.50;;;14.30;99.90;;;;;;5034516;28;20440;-84
2021/10/25 14:11:17;;;;;;;0.70;0.60;;;14.30;99.90;;;;;;5036559;28;20514;-85
2021/10/25 14:13:54;;;;;;;0.70;0.63;;;14.20;99.90;;;;;;5036098;28;20454;-84
2021/10/25 14:16:35;;;;;;;1.20;0.93;;;14.10;99.90;;;;;;5035640;28;20470;-85
2021/10/25 14:19:05;;;;;;;0.60;0.50;;;14.10;99.90;;;;;;5036346;28;20457;-84
2021/10/25 14:21:36;;;;;;;0.50;0.40;;;14.00;99.90;;;;;;5027261;28;20438;-82